sensor_id;sensor_type;location;lat;lon;timestamp;pressure;altitude;pressure_sealevel;temperature;humidity
36454;BME280;22478;51.740;-1.314;2022-11-20T00:01:09;99790.35;;;2.25;100.00
36454;BME280;22478;51.740;-1.314;2022-11-20T00:03:37;99782.01;;;3.33;100.00
36454;BME280;22478;51.740;-1.314;2022-11-20T00:06:06;99785.19;;;2.34;100.00
36454;BME280;22478;51.740;-1.314;2022-11-20T00:08:34;99784.01;;;2.12;100.00
36454;BME280;22478;51.740;-1.314;2022-11-20T00:11:03;99786.95;;;1.66;100.00
36454;BME280;22478;51.740;-1.314;2022-11-20T00:13:30;99788.52;;;1.84;100.00
36454;BME280;22478;51.740;-1.314;2022-11-20T00:15:58;99789.96;;;3.83;100.00
36454;BME280;22478;51.740;-1.314;2022-11-20T00:18:26;99787.65;;;4.51;100.00
36454;BME280;22478;51.740;-1.314;2022-11-20T00:20:53;99783.93;;;3.80;100.00
36454;BME280;22478;51.740;-1.314;2022-11-20T00:23:21;99785.77;;;3.59;100.00
36454;BME280;22478;51.740;-1.314;2022-11-20T00:25:48;99781.46;;;4.56;100.00
36454;BME280;22478;51.740;-1.314;2022-11-20T00:28:15;99783.93;;;2.82;100.00
36454;BME280;22478;51.740;-1.314;2022-11-20T00:30:42;99785.12;;;2.63;100.00
36454;BME280;22478;51.740;-1.314;2022-11-20T00:33:08;99771.04;;;4.03;100.00
36454;BME280;22478;51.740;-1.314;2022-11-20T00:35:36;99767.74;;;4.13;100.00
36454;BME280;22478;51.740;-1.314;2022-11-20T00:38:03;99767.85;;;3.08;100.00
36454;BME280;22478;51.740;-1.314;2022-11-20T00:40:30;99765.65;;;3.22;100.00
36454;BME280;22478;51.740;-1.314;2022-11-20T00:42:57;99768.06;;;3.13;100.00
36454;BME280;22478;51.740;-1.314;2022-11-20T00:45:24;99762.03;;;4.28;100.00
36454;BME280;22478;51.740;-1.314;2022-11-20T00:47:51;99760.18;;;4.42;100.00
36454;BME280;22478;51.740;-1.314;2022-11-20T00:50:18;99761.42;;;4.65;100.00
36454;BME280;22478;51.740;-1.314;2022-11-20T00:52:45;99767.04;;;4.02;100.00
36454;BME280;22478;51.740;-1.314;2022-11-20T00:55:13;99763.09;;;4.19;100.00
36454;BME280;22478;51.740;-1.314;2022-11-20T00:57:40;99765.24;;;2.66;100.00
36454;BME280;22478;51.740;-1.314;2022-11-20T01:00:08;99759.97;;;3.88;100.00
36454;BME280;22478;51.740;-1.314;2022-11-20T01:02:35;99757.51;;;3.39;100.00
36454;BME280;22478;51.740;-1.314;2022-11-20T01:05:03;99754.68;;;3.36;100.00
36454;BME280;22478;51.740;-1.314;2022-11-20T01:07:32;99745.85;;;4.41;100.00
36454;BME280;22478;51.740;-1.314;2022-11-20T01:09:59;99747.85;;;3.61;100.00
36454;BME280;22478;51.740;-1.314;2022-11-20T01:12:26;99747.01;;;2.80;100.00
36454;BME280;22478;51.740;-1.314;2022-11-20T01:14:53;99746.22;;;1.52;100.00
36454;BME280;22478;51.740;-1.314;2022-11-20T01:17:20;99739.38;;;2.67;100.00
36454;BME280;22478;51.740;-1.314;2022-11-20T01:19:49;99743.07;;;0.74;100.00
36454;BME280;22478;51.740;-1.314;2022-11-20T01:22:16;99727.45;;;2.39;100.00
36454;BME280;22478;51.740;-1.314;2022-11-20T01:24:43;99730.33;;;2.32;100.00
36454;BME280;22478;51.740;-1.314;2022-11-20T01:27:10;99727.79;;;1.62;100.00
36454;BME280;22478;51.740;-1.314;2022-11-20T01:29:37;99715.49;;;2.17;100.00
36454;BME280;22478;51.740;-1.314;2022-11-20T01:32:05;99712.90;;;2.50;100.00
36454;BME280;22478;51.740;-1.314;2022-11-20T01:34:32;99702.74;;;2.47;100.00
36454;BME280;22478;51.740;-1.314;2022-11-20T01:36:59;99704.34;;;3.37;100.00
36454;BME280;22478;51.740;-1.314;2022-11-20T01:39:26;99705.85;;;1.31;100.00
36454;BME280;22478;51.740;-1.314;2022-11-20T01:41:55;99694.99;;;2.29;100.00
36454;BME280;22478;51.740;-1.314;2022-11-20T01:44:46;99693.40;;;2.02;100.00
36454;BME280;22478;51.740;-1.314;2022-11-20T01:47:17;99684.92;;;2.75;100.00
36454;BME280;22478;51.740;-1.314;2022-11-20T01:49:48;99694.74;;;0.20;100.00
36454;BME280;22478;51.740;-1.314;2022-11-20T01:52:19;99681.76;;;2.84;100.00
36454;BME280;22478;51.740;-1.314;2022-11-20T01:54:49;99676.54;;;2.97;100.00
36454;BME280;22478;51.740;-1.314;2022-11-20T01:57:18;99675.90;;;2.55;100.00
36454;BME280;22478;51.740;-1.314;2022-11-20T01:59:52;99675.59;;;2.41;100.00
36454;BME280;22478;51.740;-1.314;2022-11-20T02:02:21;99673.96;;;2.41;100.00
36454;BME280;22478;51.740;-1.314;2022-11-20T02:04:49;99671.42;;;1.34;100.00
36454;BME280;22478;51.740;-1.314;2022-11-20T02:07:19;99673.04;;;0.48;100.00
36454;BME280;22478;51.740;-1.314;2022-11-20T02:09:47;99670.07;;;-0.31;100.00
36454;BME280;22478;51.740;-1.314;2022-11-20T02:12:14;99658.72;;;0.58;100.00
36454;BME280;22478;51.740;-1.314;2022-11-20T02:14:41;99656.32;;;0.88;100.00
36454;BME280;22478;51.740;-1.314;2022-11-20T02:17:09;99640.86;;;2.09;100.00
36454;BME280;22478;51.740;-1.314;2022-11-20T02:19:36;99639.86;;;0.07;100.00
36454;BME280;22478;51.740;-1.314;2022-11-20T02:22:07;99631.50;;;1.70;100.00
36454;BME280;22478;51.740;-1.314;2022-11-20T02:24:36;99628.67;;;0.90;100.00
36454;BME280;22478;51.740;-1.314;2022-11-20T02:27:07;99625.60;;;1.69;100.00
36454;BME280;22478;51.740;-1.314;2022-11-20T02:29:40;99626.89;;;2.35;100.00
36454;BME280;22478;51.740;-1.314;2022-11-20T02:32:18;99619.48;;;1.23;100.00
36454;BME280;22478;51.740;-1.314;2022-11-20T02:34:45;99618.81;;;0.62;100.00
36454;BME280;22478;51.740;-1.314;2022-11-20T02:37:12;99617.53;;;0.95;100.00
36454;BME280;22478;51.740;-1.314;2022-11-20T02:39:41;99608.65;;;2.25;100.00
36454;BME280;22478;51.740;-1.314;2022-11-20T02:42:11;99607.03;;;1.79;100.00
36454;BME280;22478;51.740;-1.314;2022-11-20T02:44:38;99598.67;;;1.96;100.00
36454;BME280;22478;51.740;-1.314;2022-11-20T02:47:05;99594.30;;;0.58;100.00
36454;BME280;22478;51.740;-1.314;2022-11-20T02:49:32;99585.31;;;1.81;100.00
36454;BME280;22478;51.740;-1.314;2022-11-20T02:52:01;99584.40;;;1.65;100.00
36454;BME280;22478;51.740;-1.314;2022-11-20T02:54:28;99584.74;;;-0.20;100.00
36454;BME280;22478;51.740;-1.314;2022-11-20T02:56:54;99571.11;;;1.65;100.00
36454;BME280;22478;51.740;-1.314;2022-11-20T02:59:22;99571.02;;;0.54;100.00
36454;BME280;22478;51.740;-1.314;2022-11-20T03:01:49;99574.57;;;0.20;100.00
36454;BME280;22478;51.740;-1.314;2022-11-20T03:04:16;99567.53;;;0.42;100.00
36454;BME280;22478;51.740;-1.314;2022-11-20T03:06:44;99566.45;;;0.43;100.00
36454;BME280;22478;51.740;-1.314;2022-11-20T03:09:12;99553.85;;;1.47;100.00
36454;BME280;22478;51.740;-1.314;2022-11-20T03:11:39;99546.71;;;0.94;100.00
36454;BME280;22478;51.740;-1.314;2022-11-20T03:14:06;99547.67;;;-0.23;100.00
36454;BME280;22478;51.740;-1.314;2022-11-20T03:16:33;99544.61;;;1.23;100.00
36454;BME280;22478;51.740;-1.314;2022-11-20T03:19:00;99544.12;;;0.55;100.00
36454;BME280;22478;51.740;-1.314;2022-11-20T03:21:28;99546.65;;;0.35;100.00
36454;BME280;22478;51.740;-1.314;2022-11-20T03:23:55;99539.57;;;0.60;100.00
36454;BME280;22478;51.740;-1.314;2022-11-20T03:26:24;99536.46;;;0.89;100.00
36454;BME280;22478;51.740;-1.314;2022-11-20T03:28:53;99545.15;;;-0.76;100.00
36454;BME280;22478;51.740;-1.314;2022-11-20T03:31:22;99536.02;;;0.04;100.00
36454;BME280;22478;51.740;-1.314;2022-11-20T03:33:49;99524.29;;;0.75;100.00
36454;BME280;22478;51.740;-1.314;2022-11-20T03:36:18;99516.58;;;0.55;100.00
36454;BME280;22478;51.740;-1.314;2022-11-20T03:38:46;99517.78;;;0.74;100.00
36454;BME280;22478;51.740;-1.314;2022-11-20T03:41:17;99513.92;;;0.89;100.00
36454;BME280;22478;51.740;-1.314;2022-11-20T03:43:47;99502.95;;;0.84;100.00
36454;BME280;22478;51.740;-1.314;2022-11-20T03:46:15;99499.01;;;0.50;100.00
36454;BME280;22478;51.740;-1.314;2022-11-20T03:48:42;99494.93;;;1.04;100.00
36454;BME280;22478;51.740;-1.314;2022-11-20T03:51:11;99491.22;;;1.18;100.00
36454;BME280;22478;51.740;-1.314;2022-11-20T03:53:39;99486.74;;;1.25;100.00
36454;BME280;22478;51.740;-1.314;2022-11-20T03:56:08;99487.31;;;0.58;100.00
36454;BME280;22478;51.740;-1.314;2022-11-20T03:58:37;99489.16;;;0.34;100.00
36454;BME280;22478;51.740;-1.314;2022-11-20T04:01:06;99476.78;;;1.54;100.00
36454;BME280;22478;51.740;-1.314;2022-11-20T04:03:34;99471.79;;;0.49;100.00
36454;BME280;22478;51.740;-1.314;2022-11-20T04:06:03;99472.27;;;1.78;100.00
36454;BME280;22478;51.740;-1.314;2022-11-20T04:08:31;99469.50;;;1.08;100.00
36454;BME280;22478;51.740;-1.314;2022-11-20T04:11:09;99473.85;;;-0.87;100.00
36454;BME280;22478;51.740;-1.314;2022-11-20T04:13:36;99469.52;;;0.93;100.00
36454;BME280;22478;51.740;-1.314;2022-11-20T04:16:04;99464.08;;;0.41;100.00
36454;BME280;22478;51.740;-1.314;2022-11-20T04:18:32;99457.52;;;1.64;100.00
36454;BME280;22478;51.740;-1.314;2022-11-20T04:20:59;99457.77;;;1.01;100.00
36454;BME280;22478;51.740;-1.314;2022-11-20T04:23:27;99454.49;;;1.28;100.00
36454;BME280;22478;51.740;-1.314;2022-11-20T04:25:54;99451.28;;;2.66;100.00
36454;BME280;22478;51.740;-1.314;2022-11-20T04:28:22;99443.98;;;3.03;100.00
36454;BME280;22478;51.740;-1.314;2022-11-20T04:30:49;99437.05;;;2.51;100.00
36454;BME280;22478;51.740;-1.314;2022-11-20T04:33:16;99433.39;;;2.95;100.00
36454;BME280;22478;51.740;-1.314;2022-11-20T04:35:44;99434.32;;;1.52;100.00
36454;BME280;22478;51.740;-1.314;2022-11-20T04:38:13;99431.05;;;1.72;100.00
36454;BME280;22478;51.740;-1.314;2022-11-20T04:40:41;99429.36;;;3.11;100.00
36454;BME280;22478;51.740;-1.314;2022-11-20T04:43:08;99426.70;;;2.63;100.00
36454;BME280;22478;51.740;-1.314;2022-11-20T04:45:35;99429.68;;;1.43;100.00
36454;BME280;22478;51.740;-1.314;2022-11-20T04:48:02;99435.00;;;0.28;100.00
36454;BME280;22478;51.740;-1.314;2022-11-20T04:50:29;99430.23;;;1.89;100.00
36454;BME280;22478;51.740;-1.314;2022-11-20T04:52:56;99429.54;;;1.30;100.00
36454;BME280;22478;51.740;-1.314;2022-11-20T04:55:23;99434.99;;;1.93;100.00
36454;BME280;22478;51.740;-1.314;2022-11-20T04:57:50;99441.48;;;1.00;100.00
36454;BME280;22478;51.740;-1.314;2022-11-20T05:00:18;99436.19;;;2.32;100.00
36454;BME280;22478;51.740;-1.314;2022-11-20T05:02:46;99435.74;;;2.67;100.00
36454;BME280;22478;51.740;-1.314;2022-11-20T05:05:13;99436.70;;;1.84;100.00
36454;BME280;22478;51.740;-1.314;2022-11-20T05:07:40;99434.10;;;2.93;100.00
36454;BME280;22478;51.740;-1.314;2022-11-20T05:10:08;99433.38;;;3.40;100.00
36454;BME280;22478;51.740;-1.314;2022-11-20T05:12:35;99426.36;;;3.83;100.00
36454;BME280;22478;51.740;-1.314;2022-11-20T05:15:03;99431.45;;;2.82;100.00
36454;BME280;22478;51.740;-1.314;2022-11-20T05:17:30;99430.82;;;3.30;100.00
36454;BME280;22478;51.740;-1.314;2022-11-20T05:19:57;99434.46;;;1.39;100.00
36454;BME280;22478;51.740;-1.314;2022-11-20T05:22:24;99434.52;;;2.60;100.00
36454;BME280;22478;51.740;-1.314;2022-11-20T05:24:51;99419.80;;;4.15;100.00
36454;BME280;22478;51.740;-1.314;2022-11-20T05:27:18;99428.16;;;3.43;100.00
36454;BME280;22478;51.740;-1.314;2022-11-20T05:29:46;99423.59;;;3.74;100.00
36454;BME280;22478;51.740;-1.314;2022-11-20T05:32:13;99433.38;;;3.25;100.00
36454;BME280;22478;51.740;-1.314;2022-11-20T05:34:40;99428.47;;;4.09;100.00
36454;BME280;22478;51.740;-1.314;2022-11-20T05:37:07;99429.72;;;4.19;100.00
36454;BME280;22478;51.740;-1.314;2022-11-20T05:39:34;99428.33;;;3.67;100.00
36454;BME280;22478;51.740;-1.314;2022-11-20T05:42:01;99428.86;;;4.53;100.00
36454;BME280;22478;51.740;-1.314;2022-11-20T05:44:28;99428.69;;;5.37;100.00
36454;BME280;22478;51.740;-1.314;2022-11-20T05:46:55;99426.71;;;4.70;100.00
36454;BME280;22478;51.740;-1.314;2022-11-20T05:49:22;99429.14;;;5.13;100.00
36454;BME280;22478;51.740;-1.314;2022-11-20T05:51:49;99431.46;;;3.77;100.00
36454;BME280;22478;51.740;-1.314;2022-11-20T05:54:17;99440.05;;;2.89;100.00
36454;BME280;22478;51.740;-1.314;2022-11-20T05:56:44;99422.46;;;5.11;100.00
36454;BME280;22478;51.740;-1.314;2022-11-20T05:59:11;99420.75;;;4.66;100.00
36454;BME280;22478;51.740;-1.314;2022-11-20T06:01:38;99420.24;;;4.25;100.00
36454;BME280;22478;51.740;-1.314;2022-11-20T06:04:06;99421.70;;;4.87;100.00
36454;BME280;22478;51.740;-1.314;2022-11-20T06:06:33;99418.87;;;5.40;100.00
36454;BME280;22478;51.740;-1.314;2022-11-20T06:09:00;99427.94;;;5.82;100.00
36454;BME280;22478;51.740;-1.314;2022-11-20T06:11:27;99431.34;;;4.69;100.00
36454;BME280;22478;51.740;-1.314;2022-11-20T06:13:54;99428.00;;;4.95;100.00
36454;BME280;22478;51.740;-1.314;2022-11-20T06:16:22;99438.26;;;2.24;100.00
36454;BME280;22478;51.740;-1.314;2022-11-20T06:18:49;99435.30;;;2.53;100.00
36454;BME280;22478;51.740;-1.314;2022-11-20T06:21:18;99429.79;;;3.24;100.00
36454;BME280;22478;51.740;-1.314;2022-11-20T06:23:46;99426.03;;;3.01;100.00
36454;BME280;22478;51.740;-1.314;2022-11-20T06:26:15;99414.25;;;4.92;100.00
36454;BME280;22478;51.740;-1.314;2022-11-20T06:28:43;99422.22;;;3.16;100.00
36454;BME280;22478;51.740;-1.314;2022-11-20T06:31:12;99415.93;;;2.81;100.00
36454;BME280;22478;51.740;-1.314;2022-11-20T06:33:40;99410.01;;;2.44;100.00
36454;BME280;22478;51.740;-1.314;2022-11-20T06:36:09;99411.10;;;2.91;100.00
36454;BME280;22478;51.740;-1.314;2022-11-20T06:38:37;99409.27;;;4.70;100.00
36454;BME280;22478;51.740;-1.314;2022-11-20T06:41:04;99423.90;;;3.03;100.00
36454;BME280;22478;51.740;-1.314;2022-11-20T06:43:32;99429.03;;;1.25;100.00
36454;BME280;22478;51.740;-1.314;2022-11-20T06:45:59;99427.02;;;1.06;100.00
36454;BME280;22478;51.740;-1.314;2022-11-20T06:48:28;99425.33;;;1.83;100.00
36454;BME280;22478;51.740;-1.314;2022-11-20T06:50:56;99430.16;;;0.25;100.00
36454;BME280;22478;51.740;-1.314;2022-11-20T06:53:23;99422.88;;;-0.15;100.00
36454;BME280;22478;51.740;-1.314;2022-11-20T06:55:52;99430.73;;;-0.14;100.00
36454;BME280;22478;51.740;-1.314;2022-11-20T06:58:19;99432.18;;;0.35;100.00
36454;BME280;22478;51.740;-1.314;2022-11-20T07:00:46;99423.72;;;1.53;100.00
36454;BME280;22478;51.740;-1.314;2022-11-20T07:03:13;99434.30;;;0.20;100.00
36454;BME280;22478;51.740;-1.314;2022-11-20T07:05:41;99423.18;;;-0.20;100.00
36454;BME280;22478;51.740;-1.314;2022-11-20T07:08:08;99418.66;;;0.68;100.00
36454;BME280;22478;51.740;-1.314;2022-11-20T07:10:35;99426.20;;;-1.40;100.00
36454;BME280;22478;51.740;-1.314;2022-11-20T07:13:02;99431.10;;;-0.57;100.00
36454;BME280;22478;51.740;-1.314;2022-11-20T07:15:30;99436.23;;;-1.35;100.00
36454;BME280;22478;51.740;-1.314;2022-11-20T07:17:58;99424.19;;;-0.41;100.00
36454;BME280;22478;51.740;-1.314;2022-11-20T07:20:26;99427.21;;;-0.55;100.00
36454;BME280;22478;51.740;-1.314;2022-11-20T07:22:54;99429.19;;;0.25;100.00
36454;BME280;22478;51.740;-1.314;2022-11-20T07:25:21;99432.26;;;-0.87;100.00
36454;BME280;22478;51.740;-1.314;2022-11-20T07:27:48;99433.91;;;-0.19;100.00
36454;BME280;22478;51.740;-1.314;2022-11-20T07:30:16;99430.45;;;0.01;100.00
36454;BME280;22478;51.740;-1.314;2022-11-20T07:32:46;99438.90;;;-0.51;100.00
36454;BME280;22478;51.740;-1.314;2022-11-20T07:35:14;99430.57;;;1.14;100.00
36454;BME280;22478;51.740;-1.314;2022-11-20T07:37:41;99441.70;;;-0.51;100.00
36454;BME280;22478;51.740;-1.314;2022-11-20T07:40:09;99440.04;;;0.87;100.00
36454;BME280;22478;51.740;-1.314;2022-11-20T07:42:36;99445.11;;;0.07;100.00
36454;BME280;22478;51.740;-1.314;2022-11-20T07:45:05;99458.18;;;0.60;100.00
36454;BME280;22478;51.740;-1.314;2022-11-20T07:47:35;99463.48;;;-0.34;100.00
36454;BME280;22478;51.740;-1.314;2022-11-20T07:50:03;99459.29;;;0.78;100.00
36454;BME280;22478;51.740;-1.314;2022-11-20T07:52:30;99454.10;;;2.82;100.00
36454;BME280;22478;51.740;-1.314;2022-11-20T07:54:57;99468.45;;;0.72;100.00
36454;BME280;22478;51.740;-1.314;2022-11-20T07:57:25;99469.30;;;0.97;100.00
36454;BME280;22478;51.740;-1.314;2022-11-20T07:59:52;99467.98;;;0.05;100.00
36454;BME280;22478;51.740;-1.314;2022-11-20T08:02:19;99466.00;;;0.89;100.00
36454;BME280;22478;51.740;-1.314;2022-11-20T08:04:46;99472.26;;;-0.64;100.00
36454;BME280;22478;51.740;-1.314;2022-11-20T08:07:14;99475.57;;;-0.57;100.00
36454;BME280;22478;51.740;-1.314;2022-11-20T08:09:41;99476.45;;;0.77;100.00
36454;BME280;22478;51.740;-1.314;2022-11-20T08:12:09;99472.78;;;-0.25;100.00
36454;BME280;22478;51.740;-1.314;2022-11-20T08:14:43;99484.41;;;-1.21;100.00
36454;BME280;22478;51.740;-1.314;2022-11-20T08:17:11;99474.95;;;1.24;100.00
36454;BME280;22478;51.740;-1.314;2022-11-20T08:19:38;99476.25;;;-0.11;100.00
36454;BME280;22478;51.740;-1.314;2022-11-20T08:22:05;99475.91;;;1.99;100.00
36454;BME280;22478;51.740;-1.314;2022-11-20T08:24:33;99481.53;;;-0.24;100.00
36454;BME280;22478;51.740;-1.314;2022-11-20T08:27:00;99497.09;;;-1.48;100.00
36454;BME280;22478;51.740;-1.314;2022-11-20T08:29:28;99493.73;;;-0.78;100.00
36454;BME280;22478;51.740;-1.314;2022-11-20T08:31:55;99492.72;;;-1.63;100.00
36454;BME280;22478;51.740;-1.314;2022-11-20T08:34:22;99491.18;;;-1.40;100.00
36454;BME280;22478;51.740;-1.314;2022-11-20T08:36:49;99480.36;;;1.12;100.00
36454;BME280;22478;51.740;-1.314;2022-11-20T08:39:16;99474.26;;;-0.63;100.00
36454;BME280;22478;51.740;-1.314;2022-11-20T08:41:43;99473.32;;;1.66;100.00
36454;BME280;22478;51.740;-1.314;2022-11-20T08:44:11;99483.97;;;-0.07;100.00
36454;BME280;22478;51.740;-1.314;2022-11-20T08:46:40;99493.68;;;-0.82;100.00
36454;BME280;22478;51.740;-1.314;2022-11-20T08:49:08;99508.24;;;-0.06;100.00
36454;BME280;22478;51.740;-1.314;2022-11-20T08:51:37;99511.96;;;-0.59;100.00
36454;BME280;22478;51.740;-1.314;2022-11-20T08:54:05;99508.38;;;0.92;100.00
36454;BME280;22478;51.740;-1.314;2022-11-20T08:56:33;99511.97;;;1.08;100.00
36454;BME280;22478;51.740;-1.314;2022-11-20T08:59:00;99516.21;;;1.21;100.00
36454;BME280;22478;51.740;-1.314;2022-11-20T09:01:28;99505.85;;;0.82;100.00
36454;BME280;22478;51.740;-1.314;2022-11-20T09:03:55;99512.32;;;-0.80;100.00
36454;BME280;22478;51.740;-1.314;2022-11-20T09:06:22;99521.64;;;-1.26;100.00
36454;BME280;22478;51.740;-1.314;2022-11-20T09:08:52;99517.53;;;-0.99;100.00
36454;BME280;22478;51.740;-1.314;2022-11-20T09:11:19;99525.78;;;-1.63;100.00
36454;BME280;22478;51.740;-1.314;2022-11-20T09:13:46;99523.18;;;-1.04;100.00
36454;BME280;22478;51.740;-1.314;2022-11-20T09:16:13;99520.16;;;-0.86;100.00
36454;BME280;22478;51.740;-1.314;2022-11-20T09:18:40;99516.20;;;-1.01;100.00
36454;BME280;22478;51.740;-1.314;2022-11-20T09:21:11;99519.73;;;-0.59;100.00
36454;BME280;22478;51.740;-1.314;2022-11-20T09:23:38;99526.08;;;-0.24;100.00
36454;BME280;22478;51.740;-1.314;2022-11-20T09:26:08;99520.83;;;-0.55;100.00
36454;BME280;22478;51.740;-1.314;2022-11-20T09:28:36;99518.59;;;-0.70;100.00
36454;BME280;22478;51.740;-1.314;2022-11-20T09:31:05;99520.53;;;-1.23;100.00
36454;BME280;22478;51.740;-1.314;2022-11-20T09:33:33;99527.93;;;-1.35;100.00
36454;BME280;22478;51.740;-1.314;2022-11-20T09:36:00;99529.45;;;-0.41;100.00
36454;BME280;22478;51.740;-1.314;2022-11-20T09:38:27;99534.50;;;-0.91;100.00
36454;BME280;22478;51.740;-1.314;2022-11-20T09:40:57;99519.71;;;0.43;100.00
36454;BME280;22478;51.740;-1.314;2022-11-20T09:43:32;99515.37;;;0.19;100.00
36454;BME280;22478;51.740;-1.314;2022-11-20T09:46:11;99508.04;;;0.92;100.00
36454;BME280;22478;51.740;-1.314;2022-11-20T09:48:49;99507.58;;;1.13;100.00
36454;BME280;22478;51.740;-1.314;2022-11-20T09:51:27;99519.78;;;0.70;100.00
36454;BME280;22478;51.740;-1.314;2022-11-20T09:54:10;99520.76;;;0.11;100.00
36454;BME280;22478;51.740;-1.314;2022-11-20T09:56:42;99516.15;;;-0.50;100.00
36454;BME280;22478;51.740;-1.314;2022-11-20T09:59:23;99511.55;;;0.93;100.00
36454;BME280;22478;51.740;-1.314;2022-11-20T10:01:54;99507.49;;;1.16;100.00
36454;BME280;22478;51.740;-1.314;2022-11-20T10:04:22;99512.70;;;0.04;100.00
36454;BME280;22478;51.740;-1.314;2022-11-20T10:06:55;99514.04;;;0.64;100.00
36454;BME280;22478;51.740;-1.314;2022-11-20T10:09:29;99509.17;;;0.07;100.00
36454;BME280;22478;51.740;-1.314;2022-11-20T10:12:09;99515.78;;;1.19;100.00
36454;BME280;22478;51.740;-1.314;2022-11-20T10:14:52;99516.99;;;-0.58;100.00
36454;BME280;22478;51.740;-1.314;2022-11-20T10:17:31;99508.86;;;1.35;100.00
36454;BME280;22478;51.740;-1.314;2022-11-20T10:20:15;99518.21;;;-0.46;100.00
36454;BME280;22478;51.740;-1.314;2022-11-20T10:22:55;99510.74;;;1.32;100.00
36454;BME280;22478;51.740;-1.314;2022-11-20T10:25:34;99506.96;;;-0.46;100.00
36454;BME280;22478;51.740;-1.314;2022-11-20T10:28:16;99505.77;;;0.46;100.00
36454;BME280;22478;51.740;-1.314;2022-11-20T10:30:51;99509.93;;;0.15;100.00
36454;BME280;22478;51.740;-1.314;2022-11-20T10:33:23;99505.59;;;2.13;100.00
36454;BME280;22478;51.740;-1.314;2022-11-20T10:35:55;99507.40;;;2.06;100.00
36454;BME280;22478;51.740;-1.314;2022-11-20T10:38:34;99504.35;;;2.61;100.00
36454;BME280;22478;51.740;-1.314;2022-11-20T10:41:06;99517.78;;;0.17;100.00
36454;BME280;22478;51.740;-1.314;2022-11-20T10:43:33;99514.21;;;1.95;100.00
36454;BME280;22478;51.740;-1.314;2022-11-20T10:46:05;99516.07;;;2.68;100.00
36454;BME280;22478;51.740;-1.314;2022-11-20T10:48:34;99514.47;;;1.79;100.00
36454;BME280;22478;51.740;-1.314;2022-11-20T10:51:13;99516.57;;;0.20;100.00
36454;BME280;22478;51.740;-1.314;2022-11-20T10:53:53;99510.49;;;2.08;100.00
36454;BME280;22478;51.740;-1.314;2022-11-20T10:56:26;99505.02;;;2.13;100.00
36454;BME280;22478;51.740;-1.314;2022-11-20T10:59:04;99498.43;;;3.54;100.00
36454;BME280;22478;51.740;-1.314;2022-11-20T11:01:40;99488.59;;;4.40;100.00
36454;BME280;22478;51.740;-1.314;2022-11-20T11:04:22;99485.10;;;5.21;100.00
36454;BME280;22478;51.740;-1.314;2022-11-20T11:06:51;99484.67;;;5.83;100.00
36454;BME280;22478;51.740;-1.314;2022-11-20T11:09:27;99484.02;;;7.45;100.00
36454;BME280;22478;51.740;-1.314;2022-11-20T11:11:57;99482.12;;;7.22;100.00
36454;BME280;22478;51.740;-1.314;2022-11-20T11:14:24;99488.64;;;6.95;100.00
36454;BME280;22478;51.740;-1.314;2022-11-20T11:16:52;99488.33;;;7.77;100.00
36454;BME280;22478;51.740;-1.314;2022-11-20T11:19:19;99488.30;;;5.47;100.00
36454;BME280;22478;51.740;-1.314;2022-11-20T11:21:49;99483.70;;;5.67;100.00
36454;BME280;22478;51.740;-1.314;2022-11-20T11:24:21;99488.35;;;7.06;100.00
36454;BME280;22478;51.740;-1.314;2022-11-20T11:26:55;99484.24;;;8.36;100.00
36454;BME280;22478;51.740;-1.314;2022-11-20T11:29:23;99494.93;;;7.31;100.00
36454;BME280;22478;51.740;-1.314;2022-11-20T11:31:50;99498.73;;;5.69;100.00
36454;BME280;22478;51.740;-1.314;2022-11-20T11:34:17;99483.12;;;8.30;100.00
36454;BME280;22478;51.740;-1.314;2022-11-20T11:36:54;99483.78;;;9.96;100.00
36454;BME280;22478;51.740;-1.314;2022-11-20T11:39:23;99479.26;;;11.76;96.22
36454;BME280;22478;51.740;-1.314;2022-11-20T11:41:52;99490.27;;;6.48;100.00
36454;BME280;22478;51.740;-1.314;2022-11-20T11:44:22;99487.48;;;7.36;100.00
36454;BME280;22478;51.740;-1.314;2022-11-20T11:46:53;99483.90;;;7.86;100.00
36454;BME280;22478;51.740;-1.314;2022-11-20T11:49:21;99501.13;;;3.30;100.00
36454;BME280;22478;51.740;-1.314;2022-11-20T11:52:01;99495.04;;;3.60;100.00
36454;BME280;22478;51.740;-1.314;2022-11-20T11:54:35;99492.44;;;6.55;100.00
36454;BME280;22478;51.740;-1.314;2022-11-20T11:57:11;99499.18;;;4.06;100.00
36454;BME280;22478;51.740;-1.314;2022-11-20T11:59:49;99484.86;;;8.96;100.00
36454;BME280;22478;51.740;-1.314;2022-11-20T12:02:31;99488.66;;;7.34;100.00
36454;BME280;22478;51.740;-1.314;2022-11-20T12:05:03;99492.65;;;4.66;100.00
36454;BME280;22478;51.740;-1.314;2022-11-20T12:07:39;99497.10;;;5.30;100.00
36454;BME280;22478;51.740;-1.314;2022-11-20T12:10:16;99494.82;;;4.54;100.00
36454;BME280;22478;51.740;-1.314;2022-11-20T12:12:46;99497.30;;;4.58;100.00
36454;BME280;22478;51.740;-1.314;2022-11-20T12:15:27;99497.71;;;7.02;100.00
36454;BME280;22478;51.740;-1.314;2022-11-20T12:17:56;99487.70;;;9.33;100.00
36454;BME280;22478;51.740;-1.314;2022-11-20T12:20:27;99484.32;;;7.80;100.00
36454;BME280;22478;51.740;-1.314;2022-11-20T12:23:01;99491.67;;;6.59;100.00
36454;BME280;22478;51.740;-1.314;2022-11-20T12:25:35;99491.43;;;6.93;100.00
36454;BME280;22478;51.740;-1.314;2022-11-20T12:28:21;99486.96;;;7.38;100.00
36454;BME280;22478;51.740;-1.314;2022-11-20T12:31:04;99495.75;;;5.81;100.00
36454;BME280;22478;51.740;-1.314;2022-11-20T12:33:49;99502.64;;;4.02;100.00
36454;BME280;22478;51.740;-1.314;2022-11-20T12:36:28;99493.27;;;6.56;100.00
36454;BME280;22478;51.740;-1.314;2022-11-20T12:39:12;99496.02;;;5.15;100.00
36454;BME280;22478;51.740;-1.314;2022-11-20T12:41:53;99497.72;;;5.19;100.00
36454;BME280;22478;51.740;-1.314;2022-11-20T12:44:37;99501.26;;;5.91;100.00
36454;BME280;22478;51.740;-1.314;2022-11-20T12:47:16;99514.19;;;3.84;100.00
36454;BME280;22478;51.740;-1.314;2022-11-20T12:49:53;99512.04;;;5.09;100.00
36454;BME280;22478;51.740;-1.314;2022-11-20T12:52:35;99505.23;;;3.54;100.00
36454;BME280;22478;51.740;-1.314;2022-11-20T12:55:16;99488.92;;;4.12;100.00
36454;BME280;22478;51.740;-1.314;2022-11-20T12:57:52;99497.82;;;2.36;100.00
36454;BME280;22478;51.740;-1.314;2022-11-20T13:00:22;99494.73;;;4.21;100.00